Time;durP1;ratioP1;P1;durP2;ratioP2;P2;SDS_P1;SDS_P2;PMS_P1;PMS_P2;Temp;Humidity;BMP_temperature;BMP_pressure;BME280_temperature;BME280_humidity;BME280_pressure;Samples;Min_cycle;Max_cycle;Signal;HPM_P1;HPM_P2
2022/10/01 00:00:10;;;;;;;;;;;22.50;99.90;;;;;;5033519;28;19920;-59
2022/10/01 00:02:36;;;;;;;;;;;22.40;99.90;;;;;;5034435;28;20135;-59
2022/10/01 00:05:03;;;;;;;;;;;22.40;99.90;;;;;;5034275;28;19909;-58
2022/10/01 00:07:28;;;;;;;;;;;22.40;99.90;;;;;;5033907;28;19905;-59
2022/10/01 00:09:54;;;;;;;;;;;22.40;99.90;;;;;;5034184;28;19905;-58
2022/10/01 00:12:19;;;;;;;;;;;22.40;99.90;;;;;;5033991;28;20383;-59
2022/10/01 00:14:45;;;;;;;;;;;22.40;99.90;;;;;;5032892;28;19905;-59
2022/10/01 00:17:11;;;;;;;;;;;22.40;99.90;;;;;;5034335;28;19956;-59
2022/10/01 00:19:36;;;;;;;;;;;22.40;99.90;;;;;;5033900;28;19905;-60
2022/10/01 00:22:02;;;;;;;;;;;22.40;99.90;;;;;;5033760;28;19951;-59
2022/10/01 00:24:27;;;;;;;;;;;22.40;99.90;;;;;;5032305;28;20390;-59
2022/10/01 00:26:53;;;;;;;;;;;22.40;99.90;;;;;;5032491;28;19988;-58
2022/10/01 00:29:18;;;;;;;;;;;22.30;99.90;;;;;;5033811;28;19905;-58
2022/10/01 00:31:44;;;;;;;;;;;22.30;99.90;;;;;;5033625;28;19947;-58
2022/10/01 00:34:11;;;;;;;;;;;22.30;99.90;;;;;;5033579;28;20784;-61
2022/10/01 00:36:37;;;;;;;;;;;22.30;99.90;;;;;;5033437;28;19911;-57
2022/10/01 00:39:02;;;;;;;;;;;22.30;99.90;;;;;;5033466;28;20008;-62
2022/10/01 00:41:29;;;;;;;;;;;22.30;99.90;;;;;;5033341;28;19905;-60
2022/10/01 00:43:56;;;;;;;;;;;22.30;99.90;;;;;;5033242;28;19913;-58
2022/10/01 00:46:36;;;;;;;;;;;22.20;99.90;;;;;;5033496;28;20039;-59
2022/10/01 00:49:05;;;;;;;;;;;22.20;99.90;;;;;;5033322;28;19916;-59
2022/10/01 00:51:33;;;;;;;;;;;22.20;99.90;;;;;;5033286;28;19916;-59
2022/10/01 00:54:08;;;;;;;;;;;22.20;99.90;;;;;;5033345;28;20359;-57
2022/10/01 00:56:34;;;;;;;;;;;22.20;99.90;;;;;;5033433;28;19905;-57
2022/10/01 00:59:00;;;;;;;;;;;22.20;99.90;;;;;;5031945;28;19905;-57
2022/10/01 01:01:26;;;;;;;;;;;22.20;99.90;;;;;;5033666;28;19964;-59
2022/10/01 01:03:51;;;;;;;;;;;22.20;99.90;;;;;;5033330;28;19941;-59
2022/10/01 01:06:17;;;;;;;;;;;22.20;99.90;;;;;;5032781;28;19905;-60
2022/10/01 01:08:43;;;;;;;;;;;22.10;99.90;;;;;;5033156;28;19909;-59
2022/10/01 01:11:17;;;;;;;;;;;22.10;99.90;;;;;;5033129;28;19940;-60
2022/10/01 01:13:51;;;;;;;;;;;22.10;99.90;;;;;;5032979;28;20546;-61
2022/10/01 01:16:23;;;;;;;;;;;22.10;99.90;;;;;;5032967;28;19905;-59
2022/10/01 01:18:51;;;;;;;;;;;22.10;99.90;;;;;;5032526;28;19905;-60
2022/10/01 01:21:24;;;;;;;;;;;22.10;99.90;;;;;;5032967;28;19912;-59
2022/10/01 01:24:08;;;;;;;;;;;22.10;99.90;;;;;;5032645;28;19960;-59
2022/10/01 01:26:48;;;;;;;;;;;22.00;99.90;;;;;;5032507;28;20380;-58
2022/10/01 01:29:22;;;;;;;;;;;22.00;99.90;;;;;;5032767;28;20004;-59
2022/10/01 01:31:48;;;;;;;;;;;22.00;99.90;;;;;;5032665;28;20375;-60
2022/10/01 01:34:19;;;;;;;;;;;22.00;99.90;;;;;;5032678;28;20446;-61
2022/10/01 01:36:49;;;;;;;;;;;22.00;99.90;;;;;;5032585;28;19905;-58
2022/10/01 01:39:15;;;;;;;;;;;22.00;99.90;;;;;;5031219;28;19905;-59
2022/10/01 01:41:48;;;;;;;;;;;22.00;99.90;;;;;;5032571;28;19909;-59
2022/10/01 01:44:16;;;;;;;;;;;21.90;99.90;;;;;;5032153;28;19917;-60
2022/10/01 01:46:44;;;;;;;;;;;21.90;99.90;;;;;;5032375;28;19905;-59
2022/10/01 01:49:09;;;;;;;;;;;22.00;99.90;;;;;;5032355;28;20359;-59
2022/10/01 01:51:39;;;;;;;;;;;21.90;99.90;;;;;;5032132;28;19909;-59
2022/10/01 01:54:05;;;;;;;;;;;21.90;99.90;;;;;;5032262;28;19905;-59
2022/10/01 01:56:31;;;;;;;;;;;21.90;99.90;;;;;;5032134;28;19909;-59
2022/10/01 01:58:57;;;;;;;;;;;21.90;99.90;;;;;;5030876;28;19905;-59
2022/10/01 02:01:40;;;;;;;;;;;21.90;99.90;;;;;;5032581;28;19987;-59
2022/10/01 02:04:30;;;;;;;;;;;21.90;99.90;;;;;;5031780;28;20004;-59
2022/10/01 02:07:16;;;;;;;;;;;21.90;99.90;;;;;;5023255;28;19909;-61
2022/10/01 02:09:56;;;;;;;;;;;21.90;99.90;;;;;;5031419;28;19909;-60
2022/10/01 02:12:29;;;;;;;;;;;21.80;99.90;;;;;;5032227;28;19905;-60
2022/10/01 02:14:57;;;;;;;;;;;21.80;99.90;;;;;;5030875;28;19944;-60
2022/10/01 02:17:29;;;;;;;;;;;21.80;99.90;;;;;;5032160;28;19909;-60
2022/10/01 02:20:05;;;;;;;;;;;21.80;99.90;;;;;;5030813;28;20319;-60
2022/10/01 02:22:39;;;;;;;;;;;21.80;99.90;;;;;;5030459;28;20295;-59
2022/10/01 02:25:05;;;;;;;;;;;21.80;99.90;;;;;;5031829;28;19913;-60
2022/10/01 02:27:39;;;;;;;;;;;21.70;99.90;;;;;;5031837;28;19947;-59
2022/10/01 02:30:06;;;;;;;;;;;21.70;99.90;;;;;;5031748;28;19912;-60
2022/10/01 02:32:33;;;;;;;;;;;21.70;99.90;;;;;;5031554;28;20253;-60
2022/10/01 02:35:00;;;;;;;;;;;21.70;99.90;;;;;;5031604;28;19905;-60
2022/10/01 02:37:26;;;;;;;;;;;21.70;99.90;;;;;;5032131;28;19949;-59
2022/10/01 02:39:53;;;;;;;;;;;21.70;99.90;;;;;;5031761;28;20109;-60
2022/10/01 02:42:20;;;;;;;;;;;21.70;99.90;;;;;;5031659;28;19959;-60
2022/10/01 02:44:47;;;;;;;;;;;21.70;99.90;;;;;;5031629;28;19913;-60
2022/10/01 02:47:20;;;;;;;;;;;21.70;99.90;;;;;;5031613;28;19905;-59
2022/10/01 02:49:46;;;;;;;;;;;21.70;99.90;;;;;;5031551;28;19912;-60
2022/10/01 02:52:30;;;;;;;;;;;21.60;99.90;;;;;;5031599;28;20174;-59
2022/10/01 02:54:59;;;;;;;;;;;21.60;99.90;;;;;;5031660;28;19905;-59
2022/10/01 02:57:27;;;;;;;;;;;21.60;99.90;;;;;;5031815;28;19905;-59
2022/10/01 02:59:58;;;;;;;;;;;21.60;99.90;;;;;;5040848;23;19975;-52
2022/10/01 03:02:27;;;;;;;;;;;21.60;99.90;;;;;;5031490;28;19912;-52
2022/10/01 03:04:55;;;;;;;;;;;21.50;99.90;;;;;;5031510;28;19920;-52
2022/10/01 03:07:20;;;;;;;;;;;21.50;99.90;;;;;;5031521;28;19908;-52
2022/10/01 03:09:46;;;;;;;;;;;21.50;99.90;;;;;;5031372;28;20058;-52
2022/10/01 03:12:11;;;;;;;;;;;21.50;99.90;;;;;;5031353;28;19998;-52
2022/10/01 03:14:40;;;;;;;;;;;21.50;99.90;;;;;;5031453;28;19916;-52
2022/10/01 03:17:07;;;;;;;;;;;21.50;99.90;;;;;;5031336;28;19912;-52
2022/10/01 03:19:32;;;;;;;;;;;21.40;99.90;;;;;;5031361;28;19912;-53
2022/10/01 03:21:58;;;;;;;;;;;21.40;99.90;;;;;;5031581;28;19905;-52
2022/10/01 03:24:24;;;;;;;;;;;21.40;99.90;;;;;;5031123;28;19999;-53
2022/10/01 03:26:50;;;;;;;;;;;21.40;99.90;;;;;;5031327;28;19913;-52
2022/10/01 03:29:15;;;;;;;;;;;21.40;99.90;;;;;;5031290;28;19908;-52
2022/10/01 03:31:41;;;;;;;;;;;21.40;99.90;;;;;;5031253;28;20364;-52
2022/10/01 03:34:06;;;;;;;;;;;21.40;99.90;;;;;;5031166;28;19905;-52
2022/10/01 03:36:32;;;;;;;;;;;21.40;99.90;;;;;;5031143;28;19991;-52
2022/10/01 03:38:58;;;;;;;;;;;21.40;99.90;;;;;;5031481;28;19905;-52
2022/10/01 03:41:23;;;;;;;;;;;21.40;99.90;;;;;;5031349;28;19905;-52
2022/10/01 03:43:49;;;;;;;;;;;21.30;99.90;;;;;;5034715;28;20133;-52
2022/10/01 03:46:14;;;;;;;;;;;21.30;99.90;;;;;;5034729;28;19916;-52
2022/10/01 03:48:40;;;;;;;;;;;21.30;99.90;;;;;;5034617;28;20283;-52
2022/10/01 03:51:06;;;;;;;;;;;21.30;99.90;;;;;;5034542;28;20035;-53
2022/10/01 03:53:31;;;;;;;;;;;21.30;99.90;;;;;;5034550;28;19905;-52
2022/10/01 03:55:57;;;;;;;;;;;21.40;99.90;;;;;;5034682;28;19928;-53
2022/10/01 03:58:23;;;;;;;;;;;21.40;99.90;;;;;;5034380;28;19905;-53
2022/10/01 04:00:49;;;;;;;;;;;21.50;99.90;;;;;;5046926;22;19975;-57
2022/10/01 04:03:15;;;;;;;;;;;21.40;99.90;;;;;;5026795;28;19917;-56
2022/10/01 04:05:41;;;;;;;;;;;21.50;99.90;;;;;;5034179;28;19912;-57
2022/10/01 04:08:07;;;;;;;;;;;21.50;99.90;;;;;;5034325;28;19905;-57
2022/10/01 04:10:33;;;;;;;;;;;21.60;99.90;;;;;;5032751;28;20283;-57
2022/10/01 04:12:58;;;;;;;;;;;21.60;99.90;;;;;;5033934;28;19909;-57
2022/10/01 04:15:24;;;;;;;;;;;21.60;99.90;;;;;;5033102;28;19905;-57
2022/10/01 04:17:50;;;;;;;;;;;21.60;99.90;;;;;;5033973;28;19905;-57
2022/10/01 04:20:16;;;;;;;;;;;21.60;99.90;;;;;;5032626;28;19905;-57
2022/10/01 04:22:41;;;;;;;;;;;21.70;99.90;;;;;;5031116;28;19905;-57
2022/10/01 04:25:09;;;;;;;;;;;21.70;99.90;;;;;;5033911;28;19945;-57
2022/10/01 04:27:35;;;;;;;;;;;21.70;99.90;;;;;;5033904;28;20330;-58
2022/10/01 04:30:01;;;;;;;;;;;21.70;99.90;;;;;;5034203;28;19905;-57
2022/10/01 04:32:26;;;;;;;;;;;21.70;99.90;;;;;;5033935;28;19959;-57
2022/10/01 04:34:52;;;;;;;;;;;21.70;99.90;;;;;;5033627;28;19926;-56
2022/10/01 04:37:21;;;;;;;;;;;21.70;99.90;;;;;;5033692;28;20305;-56
2022/10/01 04:39:47;;;;;;;;;;;21.70;99.90;;;;;;5033333;28;19905;-56
2022/10/01 04:42:12;;;;;;;;;;;21.70;99.90;;;;;;5033336;28;19916;-56
2022/10/01 04:44:38;;;;;;;;;;;21.70;99.90;;;;;;5033256;28;19919;-56
2022/10/01 04:47:04;;;;;;;;;;;21.70;99.90;;;;;;5033348;28;20356;-56
2022/10/01 04:49:31;;;;;;;;;;;21.70;99.90;;;;;;5033473;28;20403;-56
2022/10/01 04:51:57;;;;;;;;;;;21.70;99.90;;;;;;5032887;28;19953;-56
2022/10/01 04:54:23;;;;;;;;;;;21.60;99.90;;;;;;5032839;28;19992;-56
2022/10/01 04:56:48;;;;;;;;;;;21.60;99.90;;;;;;5033360;28;19937;-56
2022/10/01 04:59:14;;;;;;;;;;;21.60;99.90;;;;;;5033341;28;19905;-56
2022/10/01 05:01:40;;;;;;;;;;;21.60;99.90;;;;;;5033076;28;19925;-57
2022/10/01 05:04:07;;;;;;;;;;;21.60;99.90;;;;;;5033270;28;19913;-57
2022/10/01 05:06:33;;;;;;;;;;;21.60;99.90;;;;;;5033426;28;19905;-56
2022/10/01 05:08:59;;;;;;;;;;;21.60;99.90;;;;;;5033182;28;19905;-57
2022/10/01 05:11:24;;;;;;;;;;;21.60;99.90;;;;;;5048421;28;19909;-57
2022/10/01 05:13:50;;;;;;;;;;;21.60;99.90;;;;;;5031821;28;19909;-57
2022/10/01 05:16:16;;;;;;;;;;;21.60;99.90;;;;;;5033209;28;19905;-57
2022/10/01 05:18:42;;;;;;;;;;;21.60;99.90;;;;;;5033053;28;19940;-57
2022/10/01 05:21:10;;;;;;;;;;;21.60;99.90;;;;;;5032880;28;19952;-58
2022/10/01 05:23:36;;;;;;;;;;;21.60;99.90;;;;;;5032667;28;19913;-57
2022/10/01 05:26:04;;;;;;;;;;;21.60;99.90;;;;;;5033066;28;19905;-58
2022/10/01 05:28:30;;;;;;;;;;;21.60;99.90;;;;;;5032636;28;19905;-57
2022/10/01 05:30:59;;;;;;;;;;;21.60;99.90;;;;;;5032629;28;19912;-57
2022/10/01 05:33:25;;;;;;;;;;;21.60;99.90;;;;;;5032682;28;19927;-57
2022/10/01 05:35:51;;;;;;;;;;;21.60;99.90;;;;;;5032604;28;19995;-57
2022/10/01 05:38:17;;;;;;;;;;;21.60;99.90;;;;;;5032550;28;19911;-57
2022/10/01 05:40:46;;;;;;;;;;;21.50;99.90;;;;;;5031363;28;19905;-58
2022/10/01 05:43:12;;;;;;;;;;;21.50;99.90;;;;;;5032391;28;19920;-57
2022/10/01 05:45:38;;;;;;;;;;;21.50;99.90;;;;;;5032063;28;19905;-57
2022/10/01 05:48:05;;;;;;;;;;;21.60;99.90;;;;;;5032310;28;19936;-57
2022/10/01 05:50:31;;;;;;;;;;;21.50;99.90;;;;;;5032220;28;19911;-58
2022/10/01 05:52:58;;;;;;;;;;;21.50;99.90;;;;;;5032252;28;19959;-58
2022/10/01 05:55:23;;;;;;;;;;;21.50;99.90;;;;;;5032377;28;20359;-57
2022/10/01 05:57:56;;;;;;;;;;;21.50;99.90;;;;;;5032138;28;19912;-57
2022/10/01 06:00:22;;;;;;;;;;;21.50;99.90;;;;;;5032103;28;20289;-58
2022/10/01 06:02:51;;;;;;;;;;;21.50;99.90;;;;;;5032079;28;19944;-58
2022/10/01 06:05:18;;;;;;;;;;;21.50;99.90;;;;;;5031936;28;19982;-58
2022/10/01 06:07:43;;;;;;;;;;;21.50;99.90;;;;;;5032117;28;19912;-59
2022/10/01 06:10:09;;;;;;;;;;;21.50;99.90;;;;;;5032008;28;19905;-58
2022/10/01 06:12:34;;;;;;;;;;;21.50;99.90;;;;;;5030929;28;19958;-57
2022/10/01 06:15:00;;;;;;;;;;;21.50;99.90;;;;;;5031835;28;20374;-60
2022/10/01 06:17:26;;;;;;;;;;;21.50;99.90;;;;;;5047346;28;20361;-59
2022/10/01 06:19:51;;;;;;;;;;;21.50;99.90;;;;;;5030685;28;19905;-59
2022/10/01 06:22:17;;;;;;;;;;;21.50;99.90;;;;;;5031941;28;19905;-57
2022/10/01 06:24:42;;;;;;;;;;;21.50;99.90;;;;;;5031769;28;19917;-57
2022/10/01 06:27:10;;;;;;;;;;;21.50;99.90;;;;;;5031772;28;19908;-57
2022/10/01 06:29:35;;;;;;;;;;;21.50;99.90;;;;;;5032043;28;19976;-57
2022/10/01 06:32:01;;;;;;;;;;;21.50;99.90;;;;;;5031800;28;20395;-57
2022/10/01 06:34:27;;;;;;;;;;;21.60;99.90;;;;;;5031662;28;19905;-57
2022/10/01 06:36:52;;;;;;;;;;;21.60;99.90;;;;;;5031720;28;19909;-57
2022/10/01 06:39:18;;;;;;;;;;;21.60;99.90;;;;;;5031728;28;19997;-56
2022/10/01 06:41:43;;;;;;;;;;;21.60;99.90;;;;;;5030163;28;19905;-57
2022/10/01 06:44:09;;;;;;;;;;;21.60;99.90;;;;;;5031536;28;19917;-57
2022/10/01 06:46:35;;;;;;;;;;;21.60;99.90;;;;;;5031417;28;19931;-56
2022/10/01 06:49:00;;;;;;;;;;;21.60;99.90;;;;;;5031079;28;19913;-56
2022/10/01 06:54:10;;;;;;;;;;;21.70;99.90;;;;;;5031835;28;19981;-56
2022/10/01 06:56:36;;;;;;;;;;;21.70;99.90;;;;;;5031677;28;19936;-56
2022/10/01 06:59:02;;;;;;;;;;;21.80;99.90;;;;;;5031122;28;19944;-56
2022/10/01 07:01:27;;;;;;;;;;;21.80;99.90;;;;;;5031084;28;19921;-57
2022/10/01 07:03:53;;;;;;;;;;;21.80;99.90;;;;;;5030016;28;19966;-56
2022/10/01 07:06:19;;;;;;;;;;;21.90;99.90;;;;;;5031311;28;19905;-56
2022/10/01 07:08:48;;;;;;;;;;;21.80;99.90;;;;;;5031346;28;19912;-56
2022/10/01 07:11:13;;;;;;;;;;;21.90;99.90;;;;;;5046611;28;19916;-57
2022/10/01 07:13:39;;;;;;;;;;;21.90;99.90;;;;;;5031607;28;19905;-56
2022/10/01 07:16:04;;;;;;;;;;;22.00;99.90;;;;;;5032136;28;19927;-57
2022/10/01 07:18:30;;;;;;;;;;;22.10;99.90;;;;;;5034773;28;19913;-59
2022/10/01 07:20:56;;;;;;;;;;;22.10;99.90;;;;;;5035015;28;19996;-59
2022/10/01 07:23:23;;;;;;;;;;;22.10;99.90;;;;;;5034787;28;19917;-59
2022/10/01 07:25:49;;;;;;;;;;;22.20;99.90;;;;;;5034987;28;19908;-57
2022/10/01 07:28:16;;;;;;;;;;;22.20;99.90;;;;;;5034816;28;20356;-57
2022/10/01 07:30:46;;;;;;;;;;;22.30;99.90;;;;;;5034970;28;19905;-55
2022/10/01 07:33:12;;;;;;;;;;;22.30;99.90;;;;;;5034985;28;19909;-57
2022/10/01 07:35:38;;;;;;;;;;;22.40;99.90;;;;;;5034819;28;19905;-55
2022/10/01 07:38:06;;;;;;;;;;;22.50;99.90;;;;;;5034560;28;20257;-56
2022/10/01 07:40:32;;;;;;;;;;;22.50;99.90;;;;;;5034832;28;20336;-56
2022/10/01 07:42:58;;;;;;;;;;;22.50;99.90;;;;;;5034349;28;19947;-56
2022/10/01 07:45:24;;;;;;;;;;;22.60;99.90;;;;;;5034490;28;20352;-57
2022/10/01 07:47:57;;;;;;;;;;;22.70;99.90;;;;;;5034238;28;20249;-56
2022/10/01 07:50:24;;;;;;;;;;;22.70;99.90;;;;;;5034380;28;19944;-57
2022/10/01 07:52:53;;;;;;;;;;;22.70;99.90;;;;;;5034064;28;20352;-56
2022/10/01 07:55:19;;;;;;;;;;;22.80;99.90;;;;;;5034146;28;19905;-56
2022/10/01 07:57:55;;;;;;;;;;;22.90;99.90;;;;;;5034231;28;19905;-58
2022/10/01 08:00:22;;;;;;;;;;;22.90;99.90;;;;;;5034129;28;19943;-59
2022/10/01 08:02:52;;;;;;;;;;;23.00;99.90;;;;;;5032969;28;19909;-58
2022/10/01 08:05:19;;;;;;;;;;;23.00;99.90;;;;;;5034085;28;20320;-58
2022/10/01 08:07:45;;;;;;;;;;;23.00;99.90;;;;;;5034000;28;20313;-58
2022/10/01 08:10:11;;;;;;;;;;;23.10;99.90;;;;;;5034317;28;19909;-56
2022/10/01 08:12:37;;;;;;;;;;;23.10;99.90;;;;;;5033990;28;19905;-58
2022/10/01 08:15:05;;;;;;;;;;;23.20;99.90;;;;;;5033947;28;19912;-58
2022/10/01 08:17:32;;;;;;;;;;;23.20;99.90;;;;;;5049134;28;19999;-59
2022/10/01 08:19:57;;;;;;;;;;;23.30;99.90;;;;;;5033772;28;20371;-58
2022/10/01 08:22:23;;;;;;;;;;;23.30;99.90;;;;;;5033805;28;19944;-57
2022/10/01 08:24:48;;;;;;;;;;;23.40;99.90;;;;;;5033493;28;19913;-57
2022/10/01 08:27:14;;;;;;;;;;;23.40;99.90;;;;;;5033579;28;19905;-58
2022/10/01 08:29:42;;;;;;;;;;;23.50;99.90;;;;;;5033651;28;19909;-56
2022/10/01 08:32:08;;;;;;;;;;;23.50;99.90;;;;;;5033680;28;19928;-55
2022/10/01 08:34:34;;;;;;;;;;;23.50;99.90;;;;;;5033409;28;19909;-56
2022/10/01 08:37:00;;;;;;;;;;;23.60;99.90;;;;;;5032066;28;19912;-57
2022/10/01 08:39:26;;;;;;;;;;;23.70;99.90;;;;;;5033315;28;19905;-54
2022/10/01 08:41:57;;;;;;;;;;;23.70;99.90;;;;;;5033599;28;19905;-54
2022/10/01 08:44:27;;;;;;;;;;;23.70;99.90;;;;;;5033207;28;19959;-54
2022/10/01 08:46:58;;;;;;;;;;;23.70;99.90;;;;;;5033317;28;19909;-54
2022/10/01 08:49:27;;;;;;;;;;;23.80;99.90;;;;;;5033400;28;19912;-54
2022/10/01 08:51:52;;;;;;;;;;;23.80;99.90;;;;;;5033175;28;19905;-54
2022/10/01 08:54:33;;;;;;;;;;;23.90;99.90;;;;;;5033396;28;19927;-54
2022/10/01 08:57:01;;;;;;;;;;;23.90;99.90;;;;;;5033201;28;19912;-54
2022/10/01 08:59:33;;;;;;;;;;;23.90;99.90;;;;;;5032994;28;20276;-54
2022/10/01 09:01:58;;;;;;;;;;;24.00;99.90;;;;;;5048640;28;19947;-54
2022/10/01 09:04:24;;;;;;;;;;;24.00;99.90;;;;;;5033043;28;19960;-54
2022/10/01 09:06:55;;;;;;;;;;;24.10;99.90;;;;;;5033133;28;20264;-54
2022/10/01 09:09:43;;;;;;;;;;;24.10;99.90;;;;;;5032912;28;20019;-54
2022/10/01 09:12:19;;;;;;;;;;;24.10;99.90;;;;;;5032868;28;19944;-54
2022/10/01 09:14:45;;;;;;;;;;;24.20;99.90;;;;;;5033110;28;19911;-54
2022/10/01 09:17:18;;;;;;;;;;;24.20;99.90;;;;;;5032711;28;19909;-54
2022/10/01 09:19:43;;;;;;;;;;;24.30;99.90;;;;;;5032812;28;19944;-54
2022/10/01 09:22:09;;;;;;;;;;;24.30;99.90;;;;;;5032639;28;19963;-54
2022/10/01 09:24:45;;;;;;;;;;;24.30;99.90;;;;;;5032597;28;19952;-54
2022/10/01 09:27:19;;;;;;;;;;;24.40;99.90;;;;;;5032491;28;19967;-53
2022/10/01 09:29:48;;;;;;;;;;;24.50;99.90;;;;;;5032738;28;19905;-53
2022/10/01 09:32:15;;;;;;;;;;;24.50;99.90;;;;;;5032697;28;20363;-54
2022/10/01 09:34:41;;;;;;;;;;;24.50;99.90;;;;;;5047689;28;19905;-55
2022/10/01 09:37:22;;;;;;;;;;;24.60;99.90;;;;;;5032302;28;20268;-55
2022/10/01 09:39:51;;;;;;;;;;;24.70;99.90;;;;;;5031960;28;20003;-55
2022/10/01 09:42:17;;;;;;;;;;;24.70;99.90;;;;;;5032446;28;20382;-55
2022/10/01 09:44:42;;;;;;;;;;;24.70;99.90;;;;;;5032135;28;19967;-56
2022/10/01 09:47:19;;;;;;;;;;;24.80;99.90;;;;;;5032035;28;19905;-56
2022/10/01 09:49:45;;;;;;;;;;;24.80;99.90;;;;;;5032035;28;19904;-55
2022/10/01 09:52:25;;;;;;;;;;;24.90;99.90;;;;;;5032098;28;19928;-56
2022/10/01 09:54:55;;;;;;;;;;;24.90;99.90;;;;;;5031878;28;19916;-55
2022/10/01 09:57:23;;;;;;;;;;;25.00;99.90;;;;;;5031978;28;20363;-56
2022/10/01 09:59:54;;;;;;;;;;;25.10;99.90;;;;;;5032016;28;20384;-55
2022/10/01 10:02:35;;;;;;;;;;;25.10;99.90;;;;;;5032160;28;19912;-56
2022/10/01 10:05:04;;;;;;;;;;;25.20;99.90;;;;;;5031789;28;19913;-56
2022/10/01 10:07:37;;;;;;;;;;;25.20;99.90;;;;;;5031935;28;19912;-56
2022/10/01 10:10:22;;;;;;;;;;;25.30;99.90;;;;;;5031813;28;19955;-57
2022/10/01 10:12:48;;;;;;;;;;;25.30;99.90;;;;;;5031937;28;19909;-56
2022/10/01 10:15:17;;;;;;;;;;;25.40;99.90;;;;;;5031734;28;20376;-56
2022/10/01 10:17:45;;;;;;;;;;;25.40;99.90;;;;;;5031613;28;19940;-55
2022/10/01 10:20:16;;;;;;;;;;;25.50;99.90;;;;;;5031742;28;19909;-56
2022/10/01 10:22:41;;;;;;;;;;;25.50;99.90;;;;;;5031673;28;19913;-56
2022/10/01 10:25:12;;;;;;;;;;;25.50;99.90;;;;;;5031418;28;20420;-56
2022/10/01 10:27:48;;;;;;;;;;;25.60;99.90;;;;;;5031564;28;19912;-56
2022/10/01 10:30:15;;;;;;;;;;;25.70;99.90;;;;;;5031226;28;19940;-57
2022/10/01 10:32:41;;;;;;;;;;;25.70;99.90;;;;;;5031552;28;19905;-55
2022/10/01 10:35:09;;;;;;;;;;;25.70;99.90;;;;;;5031457;28;19905;-56
2022/10/01 10:37:36;;;;;;;;;;;25.70;99.90;;;;;;5030248;28;20373;-56
2022/10/01 10:40:03;;;;;;;;;;;25.90;99.90;;;;;;5031675;28;19951;-56
2022/10/01 10:42:29;;;;;;;;;;;25.90;99.90;;;;;;5031232;28;19948;-57
2022/10/01 10:44:57;;;;;;;;;;;25.90;99.90;;;;;;5031358;28;20018;-56
2022/10/01 10:47:23;;;;;;;;;;;26.00;99.90;;;;;;5031438;28;19905;-57
2022/10/01 10:49:56;;;;;;;;;;;26.00;99.90;;;;;;5046740;28;19912;-57
2022/10/01 10:52:33;;;;;;;;;;;26.10;99.90;;;;;;5049905;28;20367;-57
2022/10/01 10:55:00;;;;;;;;;;;26.10;99.90;;;;;;5035260;28;19908;-58
2022/10/01 10:57:29;;;;;;;;;;;26.20;99.90;;;;;;5035428;28;19911;-58
2022/10/01 10:59:59;;;;;;;;;;;26.20;99.90;;;;;;5035209;28;19967;-58
2022/10/01 11:02:29;;;;;;;;;;;26.20;99.90;;;;;;5034074;28;19909;-57
2022/10/01 11:04:57;;;;;;;;;;;26.30;99.90;;;;;;5031172;28;19916;-60
2022/10/01 11:07:24;;;;;;;;;;;26.40;99.90;;;;;;5028182;28;19952;-59
2022/10/01 11:09:56;;;;;;;;;;;26.50;99.90;;;;;;5014309;28;20012;-60
2022/10/01 11:12:21;;;;;;;;;;;26.60;99.90;;;;;;5031173;28;19909;-57
2022/10/01 11:15:02;;;;;;;;;;;26.70;99.90;;;;;;5035004;28;19916;-58
2022/10/01 11:17:46;;;;;;;;;;;26.80;99.90;;;;;;5035163;28;19913;-59
2022/10/01 11:20:11;;;;;;;;;;;26.90;99.90;;;;;;5033242;28;19909;-57
2022/10/01 11:22:40;;;;;;;;;;;27.00;99.90;;;;;;5028473;28;20020;-58
2022/10/01 11:25:05;;;;;;;;;;;27.10;99.90;;;;;;5024370;28;19920;-58
2022/10/01 11:27:35;;;;;;;;;;;27.20;99.90;;;;;;5030051;28;19909;-56
2022/10/01 11:30:00;;;;;;;;;;;27.20;99.90;;;;;;5030659;28;19920;-59
2022/10/01 11:32:35;;;;;;;;;;;27.30;99.90;;;;;;5027708;28;19909;-56
2022/10/01 11:35:05;;;;;;;;;;;27.30;99.90;;;;;;5028687;28;19960;-53
2022/10/01 11:37:38;;;;;;;;;;;27.40;99.90;;;;;;5023829;28;20009;-56
2022/10/01 11:40:12;;;;;;;;;;;27.50;99.90;;;;;;5023281;28;19956;-57
2022/10/01 11:42:38;;;;;;;;;;;27.60;99.90;;;;;;5024042;28;20339;-58
2022/10/01 11:45:26;;;;;;;;;;;27.70;99.90;;;;;;5025101;28;19968;-55
2022/10/01 11:47:53;;;;;;;;;;;27.80;99.90;;;;;;5021478;28;19912;-55
2022/10/01 11:50:24;;;;;;;;;;;27.80;99.90;;;;;;5014792;28;20365;-58
2022/10/01 11:53:13;;;;;;;;;;;27.80;99.90;;;;;;5014653;28;19909;-60
2022/10/01 11:58:50;;;;;;;;;;;27.90;99.90;;;;;;5029194;28;19911;-58
2022/10/01 12:01:30;;;;;;;;;;;27.90;99.90;;;;;;5019881;28;19921;-59
2022/10/01 12:04:02;;;;;;;;;;;28.00;99.90;;;;;;5023253;28;19917;-60
2022/10/01 12:06:34;;;;;;;;;;;28.00;99.90;;;;;;5033990;28;19991;-59
2022/10/01 12:09:18;;;;;;;;;;;28.00;99.90;;;;;;5033521;28;19901;-59
2022/10/01 12:11:44;;;;;;;;;;;28.00;99.90;;;;;;5033667;28;19905;-56
2022/10/01 12:14:12;;;;;;;;;;;28.00;99.90;;;;;;5033819;28;19911;-56
2022/10/01 12:16:43;;;;;;;;;;;28.00;99.90;;;;;;5019070;28;19916;-57
2022/10/01 12:19:12;;;;;;;;;;;28.00;99.90;;;;;;5028132;28;19909;-58
2022/10/01 12:21:42;;;;;;;;;;;28.00;99.90;;;;;;5013313;28;19909;-57
2022/10/01 12:24:13;;;;;;;;;;;28.00;99.90;;;;;;5012954;28;20370;-57
2022/10/01 12:26:47;;;;;;;;;;;28.00;99.90;;;;;;5025993;28;19913;-58
2022/10/01 12:29:31;;;;;;;;;;;28.10;99.90;;;;;;5032516;28;19911;-55
2022/10/01 12:31:58;;;;;;;;;;;28.20;99.90;;;;;;5018661;28;20386;-60
2022/10/01 12:34:24;;;;;;;;;;;28.20;99.90;;;;;;5017876;28;19988;-57
2022/10/01 12:36:49;;;;;;;;;;;28.30;99.90;;;;;;5019591;28;19988;-58
2022/10/01 12:39:25;;;;;;;;;;;28.30;99.90;;;;;;5017700;28;19971;-59
2022/10/01 12:41:55;;;;;;;;;;;28.40;99.90;;;;;;5013687;28;19952;-59
2022/10/01 12:44:20;;;;;;;;;;;28.40;99.90;;;;;;5019573;28;19916;-56
2022/10/01 12:46:50;;;;;;;;;;;28.50;99.90;;;;;;5033032;28;19909;-56
2022/10/01 12:49:21;;;;;;;;;;;28.60;99.90;;;;;;5022595;28;19957;-55
2022/10/01 12:51:51;;;;;;;;;;;28.60;99.90;;;;;;5032722;28;19912;-54
2022/10/01 12:54:17;;;;;;;;;;;28.60;99.90;;;;;;5032773;28;19948;-54
2022/10/01 12:56:48;;;;;;;;;;;28.70;99.90;;;;;;5033132;28;19960;-53
2022/10/01 12:59:16;;;;;;;;;;;28.70;99.90;;;;;;5032688;28;19905;-56
2022/10/01 13:01:46;;;;;;;;;;;28.70;99.90;;;;;;5032531;28;19991;-57
2022/10/01 13:04:16;;;;;;;;;;;28.80;99.90;;;;;;5032704;28;19916;-54
2022/10/01 13:06:54;;;;;;;;;;;28.80;99.90;;;;;;5032838;28;19971;-56
2022/10/01 13:09:26;;;;;;;;;;;28.80;99.90;;;;;;5032930;28;19979;-57
2022/10/01 13:11:52;;;;;;;;;;;28.80;99.90;;;;;;5032657;28;20357;-56
2022/10/01 13:14:18;;;;;;;;;;;28.80;99.90;;;;;;5027186;28;19953;-55
2022/10/01 13:16:53;;;;;;;;;;;28.80;99.90;;;;;;5029296;28;20276;-56
2022/10/01 13:19:23;;;;;;;;;;;28.80;99.90;;;;;;5032575;28;19908;-56
2022/10/01 13:21:58;;;;;;;;;;;28.80;99.90;;;;;;5032285;28;19951;-57
2022/10/01 13:24:27;;;;;;;;;;;28.80;99.90;;;;;;5031457;28;19917;-57
2022/10/01 13:26:57;;;;;;;;;;;28.90;99.90;;;;;;5031827;28;19905;-63
2022/10/01 13:29:29;;;;;;;;;;;28.80;99.90;;;;;;5031985;28;20254;-59
2022/10/01 13:31:56;;;;;;;;;;;28.90;99.90;;;;;;5032449;28;20284;-55
2022/10/01 13:34:24;;;;;;;;;;;28.90;99.90;;;;;;5032742;28;19909;-55
2022/10/01 13:36:50;;;;;;;;;;;28.90;99.90;;;;;;5032529;28;19905;-56
2022/10/01 13:39:20;;;;;;;;;;;28.90;99.90;;;;;;5031435;28;19959;-56
2022/10/01 13:41:46;;;;;;;;;;;29.00;99.90;;;;;;5029439;28;20253;-57
2022/10/01 13:44:21;;;;;;;;;;;29.00;99.90;;;;;;5012671;28;20360;-56
2022/10/01 13:46:51;;;;;;;;;;;29.00;99.90;;;;;;5019021;28;19924;-56
2022/10/01 13:49:23;;;;;;;;;;;29.00;99.90;;;;;;5031462;28;20367;-65
2022/10/01 13:51:50;;;;;;;;;;;29.10;99.90;;;;;;5030055;28;20363;-61
2022/10/01 13:54:26;;;;;;;;;;;29.10;99.90;;;;;;5030347;28;19909;-63
2022/10/01 13:56:52;;;;;;;;;;;29.00;99.90;;;;;;5031441;28;19909;-61
2022/10/01 13:59:31;;;;;;;;;;;29.00;99.90;;;;;;5031006;28;19989;-61
2022/10/01 14:01:57;;;;;;;;;;;28.90;99.90;;;;;;5028416;28;19972;-63
2022/10/01 14:04:26;;;;;;;;;;;28.80;99.90;;;;;;5030452;28;20385;-63
2022/10/01 14:06:53;;;;;;;;;;;28.70;99.90;;;;;;5032011;28;19912;-62
2022/10/01 14:09:26;;;;;;;;;;;28.60;99.90;;;;;;5029785;28;20360;-67
2022/10/01 14:17:49;;;;;;;;;;;28.60;99.90;;;;;;5027592;28;19951;-64
2022/10/01 14:20:20;;;;;;;;;;;28.60;99.90;;;;;;5029449;28;19912;-61
2022/10/01 14:23:04;;;;;;;;;;;28.70;99.90;;;;;;5029808;28;19958;-63
2022/10/01 14:25:32;;;;;;;;;;;28.70;99.90;;;;;;5029224;28;19996;-63
2022/10/01 14:28:16;;;;;;;;;;;28.70;99.90;;;;;;5030181;28;20000;-63
2022/10/01 14:30:48;;;;;;;;;;;28.80;99.90;;;;;;5029537;28;19911;-62
2022/10/01 14:33:33;;;;;;;;;;;28.80;99.90;;;;;;5029392;28;19912;-62
2022/10/01 14:36:18;;;;;;;;;;;28.90;99.90;;;;;;5029364;28;19909;-61